createdAt,value
2018-05-23T00:01:22.753Z,99.90
2018-05-23T00:03:50.181Z,99.90
2018-05-23T00:06:17.613Z,99.90
2018-05-23T00:08:45.050Z,99.90
2018-05-23T00:11:13.236Z,99.90
2018-05-23T00:13:41.437Z,99.90
2018-05-23T00:16:08.863Z,99.90
2018-05-23T00:18:36.297Z,99.90
2018-05-23T00:21:03.720Z,99.90
2018-05-23T00:23:31.960Z,99.90
2018-05-23T00:25:59.385Z,99.90
2018-05-23T00:28:27.585Z,99.90
2018-05-23T00:30:55.045Z,99.90
2018-05-23T00:33:23.225Z,99.90
2018-05-23T00:35:51.434Z,99.90
2018-05-23T00:38:19.613Z,99.90
2018-05-23T00:40:47.833Z,99.90
2018-05-23T00:43:15.295Z,99.90
2018-05-23T00:45:42.724Z,99.90
2018-05-23T00:48:10.949Z,99.90
2018-05-23T00:50:38.378Z,99.90
2018-05-23T00:53:05.825Z,99.90
2018-05-23T00:55:34.085Z,99.90
2018-05-23T00:58:01.465Z,99.90
2018-05-23T01:00:28.880Z,99.90
2018-05-23T01:02:57.082Z,99.90
2018-05-23T01:05:24.509Z,99.90
2018-05-23T01:07:51.949Z,99.90
2018-05-23T01:10:19.368Z,99.90
2018-05-23T01:12:46.784Z,99.90
2018-05-23T01:15:14.208Z,99.90
2018-05-23T01:17:42.401Z,99.90
2018-05-23T01:20:10.693Z,99.90
2018-05-23T01:22:38.115Z,99.90
2018-05-23T01:25:05.577Z,99.90
2018-05-23T01:27:32.999Z,99.90
2018-05-23T01:30:01.205Z,99.90
2018-05-23T01:32:28.645Z,99.90
2018-05-23T01:34:56.083Z,99.90
2018-05-23T01:37:23.510Z,99.90
2018-05-23T01:39:50.945Z,99.90
2018-05-23T01:42:19.207Z,99.90
2018-05-23T01:44:46.615Z,99.90
2018-05-23T01:47:14.805Z,99.90
2018-05-23T01:49:42.238Z,99.90
2018-05-23T01:52:09.689Z,99.90
2018-05-23T01:54:37.174Z,99.90
2018-05-23T01:57:04.596Z,99.90
2018-05-23T01:59:32.043Z,99.90
2018-05-23T02:02:00.242Z,99.90
2018-05-23T02:04:27.678Z,99.90
2018-05-23T02:06:55.100Z,99.90
2018-05-23T02:09:22.524Z,99.90
2018-05-23T02:11:49.935Z,99.90
2018-05-23T02:14:17.361Z,99.90
2018-05-23T02:16:45.562Z,99.90
2018-05-23T02:19:13.763Z,99.90
2018-05-23T02:21:41.944Z,99.90
2018-05-23T02:24:09.382Z,99.90
2018-05-23T02:26:36.824Z,99.90
2018-05-23T02:29:04.276Z,99.90
2018-05-23T02:31:31.692Z,99.90
2018-05-23T02:33:59.121Z,99.90
2018-05-23T02:36:26.557Z,99.90
2018-05-23T02:38:53.988Z,99.90
2018-05-23T02:41:21.518Z,99.90
2018-05-23T02:43:48.954Z,99.90
2018-05-23T02:46:19.976Z,99.90
2018-05-23T02:48:47.431Z,99.90
2018-05-23T02:51:14.878Z,99.90
2018-05-23T02:53:42.297Z,99.90
2018-05-23T02:56:09.721Z,99.90
2018-05-23T02:58:37.156Z,99.90
2018-05-23T03:01:05.356Z,99.90
2018-05-23T03:03:32.787Z,99.90
2018-05-23T03:06:00.212Z,99.90
2018-05-23T03:08:27.646Z,99.90
2018-05-23T03:10:55.836Z,99.90
2018-05-23T03:13:23.276Z,99.90
2018-05-23T03:15:50.705Z,99.90
2018-05-23T03:18:18.413Z,99.90
2018-05-23T03:20:45.827Z,99.90
2018-05-23T03:23:13.293Z,99.90
2018-05-23T03:25:40.752Z,99.90
2018-05-23T03:28:08.173Z,99.90
2018-05-23T03:30:35.597Z,99.90
2018-05-23T03:33:03.802Z,99.90
2018-05-23T03:35:31.232Z,99.90
2018-05-23T03:37:58.663Z,99.90
2018-05-23T03:40:26.083Z,99.90
2018-05-23T03:42:54.265Z,99.90
2018-05-23T03:45:22.462Z,99.90
2018-05-23T03:47:50.667Z,99.90
2018-05-23T03:50:18.109Z,99.90
2018-05-23T03:52:45.530Z,99.90
2018-05-23T03:55:13.076Z,99.90
2018-05-23T03:57:40.625Z,99.90
2018-05-23T04:00:20.805Z,99.90
2018-05-23T04:03:00.881Z,99.90
2018-05-23T04:05:40.124Z,99.90
2018-05-23T04:08:07.541Z,99.90
2018-05-23T04:10:34.985Z,99.90
2018-05-23T04:13:02.428Z,99.90
2018-05-23T04:15:30.697Z,99.90
2018-05-23T04:17:58.057Z,99.90
2018-05-23T04:20:25.478Z,99.90
2018-05-23T04:22:52.917Z,99.90
2018-05-23T04:25:21.116Z,99.90
2018-05-23T04:27:49.317Z,99.90
2018-05-23T04:30:16.752Z,99.90
2018-05-23T04:32:44.177Z,99.90
2018-05-23T04:35:11.610Z,99.90
2018-05-23T04:37:39.796Z,99.90
2018-05-23T04:40:07.979Z,99.90
2018-05-23T04:42:36.201Z,99.90
2018-05-23T04:45:03.634Z,99.90
2018-05-23T04:47:31.859Z,99.90
2018-05-23T04:49:59.296Z,99.90
2018-05-23T04:52:27.491Z,99.90
2018-05-23T04:54:55.678Z,99.90
2018-05-23T04:57:23.114Z,98.90
2018-05-23T04:59:50.542Z,99.70
2018-05-23T05:02:17.981Z,98.60
2018-05-23T05:04:46.186Z,98.30
2018-05-23T05:07:13.694Z,97.60
2018-05-23T05:09:41.939Z,98.20
2018-05-23T05:12:09.370Z,97.10
2018-05-23T05:14:36.905Z,97.00
2018-05-23T05:17:04.329Z,96.40
2018-05-23T05:19:32.521Z,95.00
2018-05-23T05:21:59.952Z,93.20
2018-05-23T05:24:27.431Z,93.80
2018-05-23T05:26:54.860Z,94.80
2018-05-23T05:29:22.288Z,95.30
2018-05-23T05:31:50.507Z,95.80
2018-05-23T05:34:18.707Z,96.30
2018-05-23T05:36:46.528Z,96.50
2018-05-23T05:39:13.956Z,95.30
2018-05-23T05:41:41.397Z,95.80
2018-05-23T05:44:09.589Z,97.90
2018-05-23T05:46:37.059Z,96.80
2018-05-23T05:49:04.504Z,98.30
2018-05-23T05:51:32.744Z,99.20
2018-05-23T05:54:00.189Z,98.00
2018-05-23T05:56:27.617Z,99.90
2018-05-23T05:58:55.042Z,99.90
2018-05-23T06:01:22.581Z,99.90
2018-05-23T06:03:49.989Z,99.90
2018-05-23T06:06:17.415Z,99.90
2018-05-23T06:08:45.703Z,99.90
2018-05-23T06:11:13.896Z,99.90
2018-05-23T06:13:42.116Z,99.90
2018-05-23T06:16:09.545Z,99.90
2018-05-23T06:18:36.984Z,99.90
2018-05-23T06:21:05.207Z,99.90
2018-05-23T06:23:32.709Z,99.90
2018-05-23T06:26:00.181Z,99.90
2018-05-23T06:28:28.344Z,99.90
2018-05-23T06:30:56.548Z,99.90
2018-05-23T06:33:23.992Z,99.90
2018-05-23T06:35:52.299Z,99.90
2018-05-23T06:38:20.474Z,99.90
2018-05-23T06:40:48.681Z,99.90
2018-05-23T06:43:16.165Z,99.90
2018-05-23T06:45:43.584Z,99.90
2018-05-23T06:48:11.030Z,99.90
2018-05-23T06:50:38.483Z,99.90
2018-05-23T06:53:05.921Z,99.90
2018-05-23T06:55:33.386Z,99.90
2018-05-23T06:58:01.587Z,93.70
2018-05-23T07:00:29.774Z,92.80
2018-05-23T07:02:57.186Z,92.30
2018-05-23T07:05:24.616Z,92.80
2018-05-23T07:07:52.048Z,90.30
2018-05-23T07:10:19.468Z,90.50
2018-05-23T07:12:46.930Z,91.40
2018-05-23T07:15:14.345Z,84.60
2018-05-23T07:17:41.772Z,84.80
2018-05-23T07:20:09.204Z,84.20
2018-05-23T07:22:37.388Z,88.20
2018-05-23T07:25:05.590Z,87.00
2018-05-23T07:27:33.806Z,91.90
2018-05-23T07:30:01.241Z,91.00
2018-05-23T07:32:29.449Z,98.60
2018-05-23T07:34:56.892Z,97.30
2018-05-23T07:37:24.329Z,99.90
2018-05-23T07:39:51.758Z,99.90
2018-05-23T07:42:19.217Z,99.90
2018-05-23T07:44:47.461Z,99.90
2018-05-23T07:47:14.892Z,99.90
2018-05-23T07:49:42.337Z,99.90
2018-05-23T07:52:10.529Z,99.90
2018-05-23T07:54:38.733Z,99.90
2018-05-23T07:57:06.162Z,99.90
2018-05-23T07:59:33.590Z,99.90
2018-05-23T08:02:01.024Z,99.90
2018-05-23T08:04:29.219Z,99.90
2018-05-23T08:06:56.664Z,99.90
2018-05-23T08:09:24.090Z,99.90
2018-05-23T08:11:51.559Z,99.90
2018-05-23T08:14:19.129Z,99.90
2018-05-23T08:16:46.564Z,99.90
2018-05-23T08:19:13.989Z,99.90
2018-05-23T08:21:41.421Z,98.10
2018-05-23T08:24:08.855Z,98.00
2018-05-23T08:26:37.055Z,94.20
2018-05-23T08:29:05.274Z,91.50
2018-05-23T08:31:32.708Z,90.70
2018-05-23T08:34:00.110Z,87.70
2018-05-23T08:36:27.555Z,83.30
2018-05-23T08:38:55.734Z,75.00
2018-05-23T08:41:23.974Z,70.70
2018-05-23T08:43:51.393Z,69.50
2018-05-23T08:46:19.011Z,63.60
2018-05-23T08:48:46.463Z,51.30
2018-05-23T08:51:13.895Z,51.80
2018-05-23T08:53:41.325Z,49.40
2018-05-23T08:56:08.750Z,42.40
2018-05-23T08:58:36.985Z,39.00
2018-05-23T09:01:04.420Z,38.60
2018-05-23T09:03:31.846Z,37.70
2018-05-23T09:05:59.268Z,36.50
2018-05-23T09:08:26.681Z,29.90
2018-05-23T09:10:54.113Z,30.00
2018-05-23T09:13:21.552Z,28.00
2018-05-23T09:15:49.733Z,32.30
2018-05-23T09:18:17.941Z,26.70
2018-05-23T09:20:45.369Z,26.50
2018-05-23T09:23:12.833Z,25.20
2018-05-23T09:25:40.305Z,26.30
2018-05-23T09:28:07.746Z,27.60
2018-05-23T09:30:35.183Z,26.60
2018-05-23T09:33:02.676Z,24.00
2018-05-23T09:35:30.088Z,26.10
2018-05-23T09:37:57.520Z,23.50
2018-05-23T09:40:24.949Z,23.90
2018-05-23T09:42:53.138Z,26.60
2018-05-23T09:45:21.337Z,30.20
2018-05-23T09:47:48.749Z,30.00
2018-05-23T09:50:16.170Z,28.70
2018-05-23T09:52:43.620Z,28.80
2018-05-23T09:55:11.065Z,24.90
2018-05-23T09:57:38.454Z,22.70
2018-05-23T10:00:06.647Z,21.40
2018-05-23T10:02:34.850Z,20.40
2018-05-23T10:05:03.029Z,20.80
2018-05-23T10:07:31.221Z,19.10
2018-05-23T10:09:58.645Z,18.90
2018-05-23T10:12:26.072Z,19.60
2018-05-23T10:14:53.500Z,19.70
2018-05-23T10:17:21.963Z,18.50
2018-05-23T10:19:49.380Z,18.50
2018-05-23T10:22:17.578Z,19.80
2018-05-23T10:24:45.009Z,19.60
2018-05-23T10:27:12.427Z,16.90
2018-05-23T10:29:40.258Z,16.30
2018-05-23T10:32:07.678Z,18.20
2018-05-23T10:34:35.113Z,19.60
2018-05-23T10:37:03.298Z,19.80
2018-05-23T10:39:32.220Z,18.80
2018-05-23T10:42:00.437Z,21.20
2018-05-23T10:44:27.860Z,21.20
2018-05-23T10:46:56.079Z,19.80
2018-05-23T10:49:23.510Z,19.70
2018-05-23T10:51:51.708Z,19.00
2018-05-23T10:54:19.907Z,17.90
2018-05-23T10:56:47.341Z,17.90
2018-05-23T10:59:15.566Z,10.40
2018-05-23T11:01:43.816Z,10.40
2018-05-23T11:04:11.249Z,10.30
2018-05-23T11:06:38.773Z,10.90
2018-05-23T11:09:07.059Z,10.70
2018-05-23T11:11:35.165Z,8.90
2018-05-23T11:14:03.357Z,8.30
2018-05-23T11:16:30.776Z,8.30
2018-05-23T11:18:58.188Z,6.60
2018-05-23T11:21:26.389Z,5.30
2018-05-23T11:23:53.795Z,5.20
2018-05-23T11:26:21.229Z,5.70
2018-05-23T11:28:48.649Z,4.20
2018-05-23T11:31:16.093Z,5.80
2018-05-23T11:33:43.524Z,5.10
2018-05-23T11:36:11.698Z,2.60
2018-05-23T11:38:39.894Z,3.40
2018-05-23T11:41:08.077Z,3.40
2018-05-23T11:43:36.277Z,2.90
2018-05-23T11:46:03.700Z,3.00
2018-05-23T11:48:31.124Z,1.20
2018-05-23T11:50:58.552Z,1.20
2018-05-23T11:53:27.594Z,1.60
2018-05-23T11:55:55.022Z,1.60
2018-05-23T11:58:23.214Z,1.90
2018-05-23T12:00:51.406Z,1.60
2018-05-23T12:03:19.590Z,1.00
2018-05-23T12:05:47.771Z,1.00
2018-05-23T12:08:15.970Z,1.00
2018-05-23T12:10:43.448Z,1.00
2018-05-23T12:13:10.813Z,1.00
2018-05-23T12:15:38.988Z,1.00
2018-05-23T12:18:07.187Z,1.00
2018-05-23T12:20:34.616Z,1.00
2018-05-23T12:23:02.060Z,1.00
2018-05-23T12:25:30.276Z,1.00
2018-05-23T12:27:57.691Z,1.00
2018-05-23T12:30:26.045Z,1.00
2018-05-23T12:32:53.442Z,1.00
2018-05-23T12:35:20.864Z,1.00
2018-05-23T12:37:48.301Z,1.00
2018-05-23T12:40:16.478Z,1.00
2018-05-23T12:42:43.892Z,1.00
2018-05-23T12:45:11.299Z,1.00
2018-05-23T12:47:38.717Z,1.00
2018-05-23T12:50:06.144Z,1.00
2018-05-23T12:52:33.564Z,1.00
2018-05-23T12:55:00.992Z,1.00
2018-05-23T12:57:28.413Z,1.00
2018-05-23T12:59:56.594Z,1.00
2018-05-23T13:02:24.009Z,1.00
2018-05-23T13:04:51.430Z,1.00
2018-05-23T13:07:18.854Z,1.00
2018-05-23T13:09:46.264Z,1.00
2018-05-23T13:12:13.684Z,1.00
2018-05-23T13:14:41.114Z,1.00
2018-05-23T13:17:08.545Z,1.00
2018-05-23T13:19:36.012Z,1.00
2018-05-23T13:22:03.450Z,1.00
2018-05-23T13:24:31.621Z,1.00
2018-05-23T13:26:59.817Z,1.00
2018-05-23T13:29:28.404Z,1.00
2018-05-23T13:31:56.581Z,1.00
2018-05-23T13:34:25.440Z,1.00
2018-05-23T13:36:52.852Z,1.00
2018-05-23T13:39:20.282Z,1.00
2018-05-23T13:41:47.763Z,1.00
2018-05-23T13:44:15.270Z,1.00
2018-05-23T13:46:42.759Z,1.00
2018-05-23T13:49:10.951Z,1.00
2018-05-23T13:51:38.458Z,1.00
2018-05-23T13:54:05.944Z,1.00
2018-05-23T13:56:33.366Z,1.00
2018-05-23T13:59:00.798Z,1.00
2018-05-23T14:01:28.204Z,1.00
2018-05-23T14:03:55.627Z,1.00
2018-05-23T14:06:23.064Z,1.00
2018-05-23T14:08:50.473Z,1.00
2018-05-23T14:11:18.791Z,1.00
2018-05-23T14:13:46.958Z,1.00
2018-05-23T14:16:15.153Z,1.00
2018-05-23T14:18:43.455Z,1.00
2018-05-23T14:21:10.874Z,1.00
2018-05-23T14:23:38.293Z,1.00
2018-05-23T14:26:05.702Z,1.00
2018-05-23T14:28:33.234Z,1.00
2018-05-23T14:31:00.556Z,1.00
2018-05-23T14:33:27.972Z,1.00
2018-05-23T14:35:55.496Z,1.00
2018-05-23T14:38:23.585Z,1.00
2018-05-23T14:40:50.994Z,1.00
2018-05-23T14:43:18.409Z,1.00
2018-05-23T14:45:45.841Z,1.00
2018-05-23T14:48:13.272Z,1.00
2018-05-23T14:50:41.481Z,1.00
2018-05-23T14:53:08.911Z,1.00
2018-05-23T14:55:36.321Z,1.00
2018-05-23T14:58:03.753Z,1.00
2018-05-23T15:00:31.168Z,1.00
2018-05-23T15:02:58.598Z,1.00
2018-05-23T15:05:26.788Z,1.00
2018-05-23T15:07:54.984Z,1.00
2018-05-23T15:10:23.184Z,1.00
2018-05-23T15:12:50.609Z,1.00
2018-05-23T15:15:18.041Z,1.00
2018-05-23T15:17:45.472Z,1.00
2018-05-23T15:20:13.691Z,1.10
2018-05-23T15:22:41.889Z,4.50
2018-05-23T15:25:09.304Z,4.50
2018-05-23T15:27:36.758Z,7.40
2018-05-23T15:30:04.161Z,10.20
2018-05-23T15:32:32.358Z,14.30
2018-05-23T15:34:59.858Z,14.20
2018-05-23T15:37:27.227Z,16.00
2018-05-23T15:39:54.657Z,19.00
2018-05-23T15:42:22.083Z,21.20
2018-05-23T15:44:49.496Z,22.20
2018-05-23T15:47:16.920Z,25.30
2018-05-23T15:49:44.348Z,30.60
2018-05-23T15:52:11.774Z,35.60
2018-05-23T15:54:39.201Z,38.90
2018-05-23T15:57:06.626Z,44.20
2018-05-23T15:59:34.045Z,43.10
2018-05-23T16:02:01.479Z,42.90
2018-05-23T16:04:28.905Z,39.40
2018-05-23T16:06:56.392Z,39.40
2018-05-23T16:09:23.860Z,39.90
2018-05-23T16:11:52.044Z,39.20
2018-05-23T16:14:20.975Z,41.30
2018-05-23T16:16:49.160Z,42.40
2018-05-23T16:19:17.364Z,42.70
2018-05-23T16:21:45.539Z,44.70
2018-05-23T16:24:13.740Z,48.40
2018-05-23T16:26:41.161Z,47.70
2018-05-23T16:29:08.601Z,47.90
2018-05-23T16:31:36.109Z,52.90
2018-05-23T16:34:03.535Z,53.50
2018-05-23T16:36:30.971Z,53.00
2018-05-23T16:38:59.149Z,55.30
2018-05-23T16:41:27.408Z,54.10
2018-05-23T16:43:54.866Z,53.10
2018-05-23T16:46:22.301Z,50.40
2018-05-23T16:48:49.732Z,48.60
2018-05-23T16:51:17.139Z,48.00
2018-05-23T16:53:44.561Z,46.80
2018-05-23T16:56:11.989Z,46.60
2018-05-23T16:58:39.425Z,47.80
2018-05-23T17:01:07.614Z,52.20
2018-05-23T17:03:35.797Z,51.60
2018-05-23T17:06:04.084Z,51.40
2018-05-23T17:08:32.279Z,48.90
2018-05-23T17:11:00.501Z,50.00
2018-05-23T17:13:27.936Z,49.20
2018-05-23T17:15:56.165Z,47.40
2018-05-23T17:18:23.606Z,46.60
2018-05-23T17:20:51.788Z,45.70
2018-05-23T17:23:19.208Z,45.00
2018-05-23T17:25:46.648Z,45.70
2018-05-23T17:28:14.061Z,44.70
2018-05-23T17:30:41.497Z,44.50
2018-05-23T17:33:08.957Z,43.90
2018-05-23T17:35:36.589Z,44.10
2018-05-23T17:38:04.053Z,43.60
2018-05-23T17:40:31.479Z,44.90
2018-05-23T17:42:58.913Z,45.50
2018-05-23T17:45:26.352Z,47.20
2018-05-23T17:47:54.539Z,46.80
2018-05-23T17:50:22.004Z,46.00
2018-05-23T17:52:49.417Z,46.40
2018-05-23T17:55:16.859Z,47.40
2018-05-23T17:57:44.288Z,47.00
2018-05-23T18:00:11.738Z,47.10
2018-05-23T18:02:39.162Z,48.10
2018-05-23T18:05:06.608Z,47.80
2018-05-23T18:07:34.039Z,47.30
2018-05-23T18:10:01.480Z,43.30
2018-05-23T18:12:29.075Z,44.30
2018-05-23T18:14:56.537Z,44.20
2018-05-23T18:17:23.996Z,45.20
2018-05-23T18:19:51.445Z,45.60
2018-05-23T18:22:19.624Z,42.70
2018-05-23T18:24:47.812Z,41.30
2018-05-23T18:27:16.037Z,40.40
2018-05-23T18:29:43.517Z,39.90
2018-05-23T18:32:11.666Z,39.70
2018-05-23T18:34:39.870Z,39.50
2018-05-23T18:37:07.303Z,39.00
2018-05-23T18:39:34.729Z,40.70
2018-05-23T18:42:02.157Z,38.00
2018-05-23T18:44:30.350Z,36.60
2018-05-23T18:46:58.542Z,37.00
2018-05-23T18:49:26.166Z,39.20
2018-05-23T18:51:53.473Z,38.40
2018-05-23T18:54:21.711Z,40.40
2018-05-23T18:56:49.894Z,38.50
2018-05-23T18:59:17.312Z,38.70
2018-05-23T19:01:45.505Z,41.70
2018-05-23T19:04:12.933Z,41.20
2018-05-23T19:06:40.390Z,40.70
2018-05-23T19:09:07.804Z,41.80
2018-05-23T19:11:36.011Z,42.20
2018-05-23T19:14:03.535Z,41.20
2018-05-23T19:16:31.766Z,43.20
2018-05-23T19:18:59.229Z,43.60
2018-05-23T19:21:26.676Z,44.70
2018-05-23T19:23:54.142Z,46.00
2018-05-23T19:26:23.073Z,47.30
2018-05-23T19:28:51.253Z,46.20
2018-05-23T19:31:19.520Z,47.80
2018-05-23T19:33:47.728Z,47.40
2018-05-23T19:36:15.924Z,47.50
2018-05-23T19:38:43.350Z,47.20
2018-05-23T19:41:10.844Z,48.20
2018-05-23T19:43:38.232Z,48.60
2018-05-23T19:46:06.416Z,50.00
2018-05-23T19:48:33.846Z,49.40
2018-05-23T19:51:01.282Z,51.90
2018-05-23T19:53:28.724Z,51.70
2018-05-23T19:55:56.909Z,53.80
2018-05-23T19:58:24.370Z,53.00
2018-05-23T20:00:52.573Z,53.30
2018-05-23T20:03:20.006Z,52.50
2018-05-23T20:05:47.429Z,53.50
2018-05-23T20:08:14.887Z,52.80
2018-05-23T20:10:42.309Z,51.10
2018-05-23T20:13:09.740Z,51.80
2018-05-23T20:15:37.163Z,51.50
2018-05-23T20:18:05.355Z,49.00
2018-05-23T20:20:33.557Z,46.80
2018-05-23T20:23:01.014Z,46.20
2018-05-23T20:25:29.204Z,43.10
2018-05-23T20:27:57.423Z,41.80
2018-05-23T20:30:24.858Z,40.70
2018-05-23T20:32:53.050Z,33.80
2018-05-23T20:35:21.265Z,34.50
2018-05-23T20:37:48.677Z,33.60
2018-05-23T20:40:16.100Z,33.60
2018-05-23T20:42:43.539Z,32.60
2018-05-23T20:45:11.780Z,29.20
2018-05-23T20:47:39.212Z,28.90
2018-05-23T20:50:06.637Z,28.40
2018-05-23T20:52:34.083Z,28.00
2018-05-23T20:55:01.512Z,29.00
2018-05-23T20:57:28.921Z,28.10
2018-05-23T20:59:56.386Z,27.30
2018-05-23T21:02:23.804Z,26.70
2018-05-23T21:04:52.021Z,27.20
2018-05-23T21:07:19.472Z,27.00
2018-05-23T21:09:47.652Z,27.60
2018-05-23T21:12:15.853Z,27.80
2018-05-23T21:14:43.277Z,27.70
2018-05-23T21:17:10.701Z,27.90
2018-05-23T21:19:38.122Z,27.90
2018-05-23T21:22:05.544Z,26.50
2018-05-23T21:24:32.983Z,25.50
2018-05-23T21:27:01.172Z,25.80
2018-05-23T21:29:29.358Z,26.10
2018-05-23T21:31:57.554Z,26.30
2018-05-23T21:34:25.053Z,26.20
2018-05-23T21:36:53.215Z,25.70
2018-05-23T21:39:20.624Z,25.60
2018-05-23T21:41:48.072Z,25.80
2018-05-23T21:44:15.501Z,25.10
2018-05-23T21:46:42.932Z,25.40
2018-05-23T21:49:10.374Z,24.50
2018-05-23T21:51:37.797Z,23.70
2018-05-23T21:54:06.011Z,24.40
2018-05-23T21:56:33.426Z,24.20
2018-05-23T21:59:00.869Z,23.50
2018-05-23T22:01:28.297Z,22.80
2018-05-23T22:03:55.737Z,21.70
2018-05-23T22:06:23.159Z,22.20
2018-05-23T22:08:50.586Z,21.80
2018-05-23T22:11:18.007Z,22.30
2018-05-23T22:13:45.437Z,21.60
2018-05-23T22:16:13.640Z,22.00
2018-05-23T22:18:41.824Z,21.80
2018-05-23T22:21:10.017Z,22.40
2018-05-23T22:23:37.437Z,22.30
2018-05-23T22:26:04.870Z,22.30
2018-05-23T22:28:32.315Z,21.50
2018-05-23T22:31:00.526Z,20.80
2018-05-23T22:33:27.940Z,20.70
2018-05-23T22:35:55.399Z,20.40
2018-05-23T22:38:22.835Z,20.70
2018-05-23T22:40:50.282Z,20.50
2018-05-23T22:43:17.700Z,20.90
2018-05-23T22:45:45.129Z,22.20
2018-05-23T22:48:12.586Z,22.40
2018-05-23T22:50:40.004Z,23.70
2018-05-23T22:53:07.437Z,23.90
2018-05-23T22:55:34.865Z,24.90
2018-05-23T22:58:02.311Z,25.50
2018-05-23T23:00:29.746Z,26.00
2018-05-23T23:02:57.176Z,26.80
2018-05-23T23:05:25.369Z,28.40
2018-05-23T23:07:53.561Z,29.00
2018-05-23T23:10:20.980Z,28.70
2018-05-23T23:12:48.416Z,29.40
2018-05-23T23:15:15.833Z,29.90
2018-05-23T23:17:43.274Z,31.00
2018-05-23T23:20:10.711Z,32.10
2018-05-23T23:22:39.076Z,32.30
2018-05-23T23:25:06.552Z,32.90
2018-05-23T23:27:33.952Z,33.40
2018-05-23T23:30:01.378Z,33.90
2018-05-23T23:32:29.583Z,35.10
2018-05-23T23:34:57.775Z,36.40
2018-05-23T23:37:25.195Z,35.90
2018-05-23T23:39:52.632Z,37.50
2018-05-23T23:42:20.066Z,37.30
2018-05-23T23:44:48.249Z,39.20
2018-05-23T23:47:16.450Z,40.20
2018-05-23T23:49:43.888Z,39.60
2018-05-23T23:52:11.325Z,41.80
2018-05-23T23:54:38.877Z,42.80
2018-05-23T23:57:06.216Z,44.20
2018-05-23T23:59:34.416Z,47.10
